sensor_id;sensor_type;location;lat;lon;timestamp;pressure;altitude;pressure_sealevel;temperature;humidity
40315;BME280;26021;45.640;11.302;2023-08-07T00:00:42;98180.75;;;15.62;100.00
40315;BME280;26021;45.640;11.302;2023-08-07T00:03:08;98171.03;;;15.54;100.00
40315;BME280;26021;45.640;11.302;2023-08-07T00:05:33;98171.03;;;15.54;100.00
40315;BME280;26021;45.640;11.302;2023-08-07T00:07:59;98182.09;;;15.46;100.00
40315;BME280;26021;45.640;11.302;2023-08-07T00:10:24;98173.81;;;15.48;100.00
40315;BME280;26021;45.640;11.302;2023-08-07T00:12:50;98133.84;;;15.26;100.00
40315;BME280;26021;45.640;11.302;2023-08-07T00:15:15;98172.66;;;15.62;100.00
40315;BME280;26021;45.640;11.302;2023-08-07T00:17:41;98174.69;;;15.42;100.00
40315;BME280;26021;45.640;11.302;2023-08-07T00:20:07;98178.22;;;15.42;100.00
40315;BME280;26021;45.640;11.302;2023-08-07T00:22:33;98151.28;;;15.24;100.00
40315;BME280;26021;45.640;11.302;2023-08-07T00:24:58;98172.84;;;14.99;100.00
40315;BME280;26021;45.640;11.302;2023-08-07T00:27:23;98102.41;;;14.77;100.00
40315;BME280;26021;45.640;11.302;2023-08-07T00:29:49;98163.22;;;15.10;100.00
40315;BME280;26021;45.640;11.302;2023-08-07T00:32:14;98166.84;;;15.22;100.00
40315;BME280;26021;45.640;11.302;2023-08-07T00:34:39;98165.38;;;15.01;100.00
40315;BME280;26021;45.640;11.302;2023-08-07T00:37:05;98124.28;;;14.87;100.00
40315;BME280;26021;45.640;11.302;2023-08-07T00:39:31;98168.09;;;15.19;100.00
40315;BME280;26021;45.640;11.302;2023-08-07T00:41:56;98170.34;;;15.22;100.00
40315;BME280;26021;45.640;11.302;2023-08-07T00:44:21;98172.88;;;15.17;100.00
40315;BME280;26021;45.640;11.302;2023-08-07T00:46:48;98157.22;;;14.83;100.00
40315;BME280;26021;45.640;11.302;2023-08-07T00:49:15;98157.47;;;14.81;100.00
40315;BME280;26021;45.640;11.302;2023-08-07T00:51:42;98143.94;;;14.63;100.00
40315;BME280;26021;45.640;11.302;2023-08-07T00:54:10;98162.78;;;14.63;100.00
40315;BME280;26021;45.640;11.302;2023-08-07T00:56:36;98166.47;;;14.69;100.00
40315;BME280;26021;45.640;11.302;2023-08-07T00:59:02;98155.59;;;14.57;100.00
40315;BME280;26021;45.640;11.302;2023-08-07T01:01:28;98111.78;;;14.12;100.00
40315;BME280;26021;45.640;11.302;2023-08-07T01:03:54;98129.53;;;14.26;100.00
40315;BME280;26021;45.640;11.302;2023-08-07T01:06:19;98121.41;;;13.94;100.00
40315;BME280;26021;45.640;11.302;2023-08-07T01:08:45;98157.50;;;14.12;100.00
40315;BME280;26021;45.640;11.302;2023-08-07T01:14:00;98156.25;;;14.21;100.00
40315;BME280;26021;45.640;11.302;2023-08-07T01:16:48;98157.13;;;14.08;100.00
40315;BME280;26021;45.640;11.302;2023-08-07T01:19:34;98156.94;;;14.03;100.00
40315;BME280;26021;45.640;11.302;2023-08-07T01:22:16;98162.72;;;14.07;100.00
40315;BME280;26021;45.640;11.302;2023-08-07T01:24:45;98151.59;;;13.96;100.00
40315;BME280;26021;45.640;11.302;2023-08-07T01:32:59;98161.50;;;14.03;100.00
40315;BME280;26021;45.640;11.302;2023-08-07T01:35:28;98168.41;;;13.85;100.00
40315;BME280;26021;45.640;11.302;2023-08-07T01:37:55;98157.91;;;13.77;100.00
40315;BME280;26021;45.640;11.302;2023-08-07T01:40:22;98160.66;;;13.64;100.00
40315;BME280;26021;45.640;11.302;2023-08-07T01:42:48;98159.59;;;13.72;100.00
40315;BME280;26021;45.640;11.302;2023-08-07T01:45:13;98166.97;;;13.83;100.00
40315;BME280;26021;45.640;11.302;2023-08-07T01:47:39;98164.91;;;13.85;100.00
40315;BME280;26021;45.640;11.302;2023-08-07T01:50:04;98107.97;;;13.56;100.00
40315;BME280;26021;45.640;11.302;2023-08-07T01:52:30;98158.97;;;13.70;100.00
40315;BME280;26021;45.640;11.302;2023-08-07T01:54:56;98161.72;;;13.56;100.00
40315;BME280;26021;45.640;11.302;2023-08-07T01:57:21;98153.81;;;13.68;100.00
40315;BME280;26021;45.640;11.302;2023-08-07T01:59:46;98168.88;;;13.76;100.00
40315;BME280;26021;45.640;11.302;2023-08-07T02:02:12;98161.28;;;13.59;100.00
40315;BME280;26021;45.640;11.302;2023-08-07T02:04:37;98171.53;;;13.82;100.00
40315;BME280;26021;45.640;11.302;2023-08-07T02:07:03;98167.00;;;13.76;100.00
40315;BME280;26021;45.640;11.302;2023-08-07T02:09:28;98135.31;;;13.47;100.00
40315;BME280;26021;45.640;11.302;2023-08-07T02:11:54;98169.13;;;13.67;100.00
40315;BME280;26021;45.640;11.302;2023-08-07T02:14:19;98163.53;;;13.69;100.00
40315;BME280;26021;45.640;11.302;2023-08-07T02:16:44;98172.88;;;13.60;100.00
40315;BME280;26021;45.640;11.302;2023-08-07T02:19:10;98167.13;;;13.43;100.00
40315;BME280;26021;45.640;11.302;2023-08-07T02:21:35;98170.59;;;13.57;100.00
40315;BME280;26021;45.640;11.302;2023-08-07T02:24:02;98169.97;;;13.61;100.00
40315;BME280;26021;45.640;11.302;2023-08-07T02:26:27;98115.06;;;13.38;100.00
40315;BME280;26021;45.640;11.302;2023-08-07T02:28:53;98182.88;;;13.84;100.00
40315;BME280;26021;45.640;11.302;2023-08-07T02:31:18;98180.63;;;13.81;100.00
40315;BME280;26021;45.640;11.302;2023-08-07T02:33:44;98181.66;;;13.80;100.00
40315;BME280;26021;45.640;11.302;2023-08-07T02:36:09;98180.84;;;13.80;100.00
40315;BME280;26021;45.640;11.302;2023-08-07T02:38:34;98166.81;;;13.71;100.00
40315;BME280;26021;45.640;11.302;2023-08-07T02:41:00;98178.56;;;13.77;100.00
40315;BME280;26021;45.640;11.302;2023-08-07T02:43:25;98185.22;;;13.67;100.00
40315;BME280;26021;45.640;11.302;2023-08-07T02:45:52;98161.13;;;13.34;100.00
40315;BME280;26021;45.640;11.302;2023-08-07T02:48:17;98170.03;;;13.42;100.00
40315;BME280;26021;45.640;11.302;2023-08-07T02:50:43;98186.47;;;13.65;100.00
40315;BME280;26021;45.640;11.302;2023-08-07T02:53:09;98180.53;;;13.56;100.00
40315;BME280;26021;45.640;11.302;2023-08-07T02:55:34;98196.38;;;13.71;100.00
40315;BME280;26021;45.640;11.302;2023-08-07T02:58:00;98180.28;;;13.64;100.00
40315;BME280;26021;45.640;11.302;2023-08-07T03:00:25;98190.06;;;13.46;100.00
40315;BME280;26021;45.640;11.302;2023-08-07T03:02:50;97981.53;;;12.29;100.00
40315;BME280;26021;45.640;11.302;2023-08-07T03:05:16;98180.53;;;13.50;100.00
40315;BME280;26021;45.640;11.302;2023-08-07T03:07:41;98189.38;;;13.63;100.00
40315;BME280;26021;45.640;11.302;2023-08-07T03:10:07;98184.66;;;13.59;100.00
40315;BME280;26021;45.640;11.302;2023-08-07T03:12:32;98182.81;;;13.53;100.00
40315;BME280;26021;45.640;11.302;2023-08-07T03:14:58;98168.59;;;13.32;100.00
40315;BME280;26021;45.640;11.302;2023-08-07T03:17:23;98161.97;;;13.28;100.00
40315;BME280;26021;45.640;11.302;2023-08-07T03:19:48;98170.06;;;13.09;100.00
40315;BME280;26021;45.640;11.302;2023-08-07T03:22:14;98180.19;;;12.93;100.00
40315;BME280;26021;45.640;11.302;2023-08-07T03:24:40;98175.84;;;13.05;100.00
40315;BME280;26021;45.640;11.302;2023-08-07T03:27:05;98174.59;;;13.15;100.00
40315;BME280;26021;45.640;11.302;2023-08-07T03:29:31;98176.88;;;13.11;100.00
40315;BME280;26021;45.640;11.302;2023-08-07T03:31:56;98177.72;;;12.98;100.00
40315;BME280;26021;45.640;11.302;2023-08-07T03:34:22;98172.75;;;13.02;100.00
40315;BME280;26021;45.640;11.302;2023-08-07T03:36:47;98183.69;;;13.20;100.00
40315;BME280;26021;45.640;11.302;2023-08-07T03:39:13;98177.91;;;13.17;100.00
40315;BME280;26021;45.640;11.302;2023-08-07T03:41:39;98183.28;;;13.23;100.00
40315;BME280;26021;45.640;11.302;2023-08-07T03:44:04;98156.03;;;13.00;100.00
40315;BME280;26021;45.640;11.302;2023-08-07T03:46:30;98185.53;;;13.07;100.00
40315;BME280;26021;45.640;11.302;2023-08-07T03:48:56;98194.84;;;13.04;100.00
40315;BME280;26021;45.640;11.302;2023-08-07T03:51:21;98198.97;;;13.20;100.00
40315;BME280;26021;45.640;11.302;2023-08-07T03:53:46;98198.13;;;13.32;100.00
40315;BME280;26021;45.640;11.302;2023-08-07T03:56:12;98204.56;;;13.38;100.00
40315;BME280;26021;45.640;11.302;2023-08-07T03:58:38;98192.16;;;13.24;100.00
40315;BME280;26021;45.640;11.302;2023-08-07T04:01:03;98207.84;;;13.27;100.00
40315;BME280;26021;45.640;11.302;2023-08-07T04:03:29;98213.44;;;13.25;100.00
40315;BME280;26021;45.640;11.302;2023-08-07T04:05:54;98210.31;;;13.28;100.00
40315;BME280;26021;45.640;11.302;2023-08-07T04:08:21;98215.06;;;13.13;100.00
40315;BME280;26021;45.640;11.302;2023-08-07T04:11:07;98205.38;;;12.99;100.00
40315;BME280;26021;45.640;11.302;2023-08-07T04:13:32;98205.59;;;13.24;100.00
40315;BME280;26021;45.640;11.302;2023-08-07T04:15:58;98207.22;;;13.05;100.00
40315;BME280;26021;45.640;11.302;2023-08-07T04:18:24;98214.69;;;12.77;100.00
40315;BME280;26021;45.640;11.302;2023-08-07T04:20:53;98148.81;;;12.28;100.00
40315;BME280;26021;45.640;11.302;2023-08-07T04:23:19;98214.03;;;12.61;100.00
40315;BME280;26021;45.640;11.302;2023-08-07T04:25:45;98167.78;;;12.46;100.00
40315;BME280;26021;45.640;11.302;2023-08-07T04:28:12;98188.25;;;12.73;100.00
40315;BME280;26021;45.640;11.302;2023-08-07T04:30:37;98204.53;;;13.12;100.00
40315;BME280;26021;45.640;11.302;2023-08-07T04:33:03;98207.84;;;13.00;100.00
40315;BME280;26021;45.640;11.302;2023-08-07T04:35:30;98210.53;;;13.14;100.00
40315;BME280;26021;45.640;11.302;2023-08-07T04:37:55;98221.91;;;13.02;100.00
40315;BME280;26021;45.640;11.302;2023-08-07T04:40:20;98194.00;;;13.03;100.00
40315;BME280;26021;45.640;11.302;2023-08-07T04:42:48;98220.03;;;13.16;100.00
40315;BME280;26021;45.640;11.302;2023-08-07T04:45:14;98221.47;;;13.25;100.00
40315;BME280;26021;45.640;11.302;2023-08-07T04:47:40;98225.00;;;13.39;100.00
40315;BME280;26021;45.640;11.302;2023-08-07T04:50:06;98228.28;;;13.54;100.00
40315;BME280;26021;45.640;11.302;2023-08-07T04:52:32;98229.72;;;13.50;100.00
40315;BME280;26021;45.640;11.302;2023-08-07T04:54:57;98234.66;;;13.60;100.00
40315;BME280;26021;45.640;11.302;2023-08-07T04:57:23;98230.91;;;13.74;100.00
40315;BME280;26021;45.640;11.302;2023-08-07T04:59:48;98235.09;;;13.57;100.00
40315;BME280;26021;45.640;11.302;2023-08-07T05:02:14;98237.34;;;13.60;100.00
40315;BME280;26021;45.640;11.302;2023-08-07T05:04:39;98233.22;;;13.57;100.00
40315;BME280;26021;45.640;11.302;2023-08-07T05:07:05;98235.25;;;13.68;100.00
40315;BME280;26021;45.640;11.302;2023-08-07T05:09:30;98242.88;;;13.78;100.00
40315;BME280;26021;45.640;11.302;2023-08-07T05:11:56;98243.53;;;13.67;100.00
40315;BME280;26021;45.640;11.302;2023-08-07T05:14:21;98183.69;;;13.40;100.00
40315;BME280;26021;45.640;11.302;2023-08-07T05:16:47;98247.22;;;13.79;100.00
40315;BME280;26021;45.640;11.302;2023-08-07T05:19:13;98244.31;;;13.81;100.00
40315;BME280;26021;45.640;11.302;2023-08-07T05:21:38;98191.09;;;13.51;100.00
40315;BME280;26021;45.640;11.302;2023-08-07T05:24:04;98245.75;;;13.83;100.00
40315;BME280;26021;45.640;11.302;2023-08-07T05:26:30;98239.47;;;14.03;100.00
40315;BME280;26021;45.640;11.302;2023-08-07T05:28:55;98248.28;;;14.23;99.04
40315;BME280;26021;45.640;11.302;2023-08-07T05:31:23;98246.00;;;14.26;100.00
40315;BME280;26021;45.640;11.302;2023-08-07T05:33:49;98251.69;;;14.50;100.00
40315;BME280;26021;45.640;11.302;2023-08-07T05:36:14;98255.66;;;14.41;100.00
40315;BME280;26021;45.640;11.302;2023-08-07T05:38:39;98257.50;;;14.47;100.00
40315;BME280;26021;45.640;11.302;2023-08-07T05:41:05;98255.28;;;14.69;100.00
40315;BME280;26021;45.640;11.302;2023-08-07T05:43:30;98210.50;;;14.49;100.00
40315;BME280;26021;45.640;11.302;2023-08-07T05:45:56;98266.88;;;14.69;100.00
40315;BME280;26021;45.640;11.302;2023-08-07T05:48:21;98268.66;;;14.82;100.00
40315;BME280;26021;45.640;11.302;2023-08-07T05:50:46;98244.66;;;14.80;100.00
40315;BME280;26021;45.640;11.302;2023-08-07T05:53:12;98264.03;;;14.96;100.00
40315;BME280;26021;45.640;11.302;2023-08-07T05:55:39;98215.22;;;14.54;99.79
40315;BME280;26021;45.640;11.302;2023-08-07T05:58:07;98270.84;;;15.23;96.24
40315;BME280;26021;45.640;11.302;2023-08-07T06:00:32;98272.28;;;15.25;98.44
40315;BME280;26021;45.640;11.302;2023-08-07T06:02:58;98266.25;;;15.48;98.28
40315;BME280;26021;45.640;11.302;2023-08-07T06:05:23;98275.63;;;15.89;97.97
40315;BME280;26021;45.640;11.302;2023-08-07T06:07:49;98280.09;;;16.13;91.39
40315;BME280;26021;45.640;11.302;2023-08-07T06:10:15;98288.34;;;16.18;92.84
40315;BME280;26021;45.640;11.302;2023-08-07T06:12:40;98253.78;;;16.27;93.05
40315;BME280;26021;45.640;11.302;2023-08-07T06:15:06;98282.81;;;16.62;88.84
40315;BME280;26021;45.640;11.302;2023-08-07T06:17:31;98258.16;;;16.88;87.85
40315;BME280;26021;45.640;11.302;2023-08-07T06:19:57;98238.69;;;16.98;85.02
40315;BME280;26021;45.640;11.302;2023-08-07T06:22:22;98274.94;;;17.43;86.35
40315;BME280;26021;45.640;11.302;2023-08-07T06:24:48;98271.44;;;17.66;87.22
40315;BME280;26021;45.640;11.302;2023-08-07T06:27:14;98279.78;;;17.88;79.33
40315;BME280;26021;45.640;11.302;2023-08-07T06:29:39;98262.47;;;18.01;79.00
40315;BME280;26021;45.640;11.302;2023-08-07T06:32:05;98284.56;;;18.09;79.60
40315;BME280;26021;45.640;11.302;2023-08-07T06:34:31;98253.06;;;18.03;80.66
40315;BME280;26021;45.640;11.302;2023-08-07T06:36:57;98271.44;;;18.30;81.15
40315;BME280;26021;45.640;11.302;2023-08-07T06:39:22;98275.38;;;18.51;78.35
40315;BME280;26021;45.640;11.302;2023-08-07T06:41:47;98278.41;;;18.94;73.23
40315;BME280;26021;45.640;11.302;2023-08-07T06:44:13;98269.19;;;18.95;71.04
40315;BME280;26021;45.640;11.302;2023-08-07T06:46:38;98263.50;;;18.80;70.93
40315;BME280;26021;45.640;11.302;2023-08-07T06:49:04;98262.56;;;18.46;74.14
40315;BME280;26021;45.640;11.302;2023-08-07T06:51:29;98269.25;;;18.67;74.71
40315;BME280;26021;45.640;11.302;2023-08-07T06:53:55;98269.47;;;18.65;72.82
40315;BME280;26021;45.640;11.302;2023-08-07T06:56:21;98236.06;;;18.20;71.69
40315;BME280;26021;45.640;11.302;2023-08-07T06:58:46;98206.81;;;18.05;74.08
40315;BME280;26021;45.640;11.302;2023-08-07T07:01:12;98269.81;;;18.69;74.16
40315;BME280;26021;45.640;11.302;2023-08-07T07:03:37;98267.56;;;18.94;72.09
40315;BME280;26021;45.640;11.302;2023-08-07T07:06:02;98242.09;;;18.79;73.69
40315;BME280;26021;45.640;11.302;2023-08-07T07:08:28;98271.03;;;19.40;72.89
40315;BME280;26021;45.640;11.302;2023-08-07T07:10:53;98242.69;;;19.64;75.80
40315;BME280;26021;45.640;11.302;2023-08-07T07:13:19;98255.63;;;19.79;74.51
40315;BME280;26021;45.640;11.302;2023-08-07T07:15:44;98263.69;;;20.13;68.66
40315;BME280;26021;45.640;11.302;2023-08-07T07:18:09;98218.09;;;19.93;69.29
40315;BME280;26021;45.640;11.302;2023-08-07T07:20:35;98269.38;;;20.33;67.80
40315;BME280;26021;45.640;11.302;2023-08-07T07:23:00;98265.69;;;20.66;65.49
40315;BME280;26021;45.640;11.302;2023-08-07T07:25:26;98267.06;;;20.42;65.96
40315;BME280;26021;45.640;11.302;2023-08-07T07:27:51;98277.66;;;20.21;65.80
40315;BME280;26021;45.640;11.302;2023-08-07T07:30:17;98274.81;;;20.11;67.81
40315;BME280;26021;45.640;11.302;2023-08-07T07:32:42;98272.25;;;20.05;66.91
40315;BME280;26021;45.640;11.302;2023-08-07T07:35:08;98275.88;;;20.54;66.18
40315;BME280;26021;45.640;11.302;2023-08-07T07:37:33;98203.94;;;20.35;66.42
40315;BME280;26021;45.640;11.302;2023-08-07T07:39:59;98277.75;;;21.02;68.62
40315;BME280;26021;45.640;11.302;2023-08-07T07:42:24;98265.31;;;21.38;68.50
40315;BME280;26021;45.640;11.302;2023-08-07T07:44:50;98269.41;;;21.78;69.02
40315;BME280;26021;45.640;11.302;2023-08-07T07:47:15;98267.66;;;21.62;64.99
40315;BME280;26021;45.640;11.302;2023-08-07T07:49:45;98274.22;;;22.08;63.42
40315;BME280;26021;45.640;11.302;2023-08-07T07:52:12;98281.34;;;22.14;61.47
40315;BME280;26021;45.640;11.302;2023-08-07T07:54:38;98277.84;;;22.24;55.75
40315;BME280;26021;45.640;11.302;2023-08-07T07:57:04;98280.84;;;22.27;58.52
40315;BME280;26021;45.640;11.302;2023-08-07T07:59:29;98275.50;;;22.52;58.54
40315;BME280;26021;45.640;11.302;2023-08-07T08:01:55;98239.47;;;22.30;55.66
40315;BME280;26021;45.640;11.302;2023-08-07T08:04:20;98277.69;;;22.56;53.37
40315;BME280;26021;45.640;11.302;2023-08-07T08:06:46;98262.44;;;22.55;52.75
40315;BME280;26021;45.640;11.302;2023-08-07T08:09:13;98277.81;;;22.86;55.50
40315;BME280;26021;45.640;11.302;2023-08-07T08:11:38;98281.09;;;22.93;52.10
40315;BME280;26021;45.640;11.302;2023-08-07T08:14:04;98271.56;;;23.01;47.29
40315;BME280;26021;45.640;11.302;2023-08-07T08:16:29;98281.97;;;23.34;49.83
40315;BME280;26021;45.640;11.302;2023-08-07T08:18:55;98269.41;;;23.43;48.45
40315;BME280;26021;45.640;11.302;2023-08-07T08:21:20;98249.19;;;23.44;49.48
40315;BME280;26021;45.640;11.302;2023-08-07T08:23:45;98283.31;;;23.83;49.01
40315;BME280;26021;45.640;11.302;2023-08-07T08:26:11;98281.13;;;23.69;45.75
40315;BME280;26021;45.640;11.302;2023-08-07T08:28:37;98277.56;;;23.74;45.13
40315;BME280;26021;45.640;11.302;2023-08-07T08:31:02;98282.50;;;23.62;42.60
40315;BME280;26021;45.640;11.302;2023-08-07T08:33:28;98272.38;;;23.93;39.60
40315;BME280;26021;45.640;11.302;2023-08-07T08:35:53;98179.06;;;23.45;41.47
40315;BME280;26021;45.640;11.302;2023-08-07T08:38:19;98172.25;;;23.48;42.36
40315;BME280;26021;45.640;11.302;2023-08-07T08:40:47;98287.47;;;24.60;40.89
40315;BME280;26021;45.640;11.302;2023-08-07T08:43:16;98238.44;;;24.09;41.60
40315;BME280;26021;45.640;11.302;2023-08-07T08:45:43;98238.31;;;24.45;42.37
40315;BME280;26021;45.640;11.302;2023-08-07T08:48:18;98268.00;;;24.71;44.62
40315;BME280;26021;45.640;11.302;2023-08-07T08:50:49;98296.44;;;24.70;44.39
40315;BME280;26021;45.640;11.302;2023-08-07T08:53:16;98295.16;;;24.48;42.78
40315;BME280;26021;45.640;11.302;2023-08-07T08:55:42;98301.59;;;23.97;41.96
40315;BME280;26021;45.640;11.302;2023-08-07T08:58:12;98301.59;;;23.92;41.47
40315;BME280;26021;45.640;11.302;2023-08-07T09:00:39;98294.44;;;24.12;42.95
40315;BME280;26021;45.640;11.302;2023-08-07T09:03:06;98303.16;;;24.29;43.55
40315;BME280;26021;45.640;11.302;2023-08-07T09:05:31;98307.97;;;24.57;44.51
40315;BME280;26021;45.640;11.302;2023-08-07T09:07:57;98306.88;;;24.63;43.48
40315;BME280;26021;45.640;11.302;2023-08-07T09:10:24;98263.72;;;24.45;45.34
40315;BME280;26021;45.640;11.302;2023-08-07T09:15:21;98308.06;;;24.91;42.39
40315;BME280;26021;45.640;11.302;2023-08-07T09:17:49;98305.16;;;24.78;41.86
40315;BME280;26021;45.640;11.302;2023-08-07T09:20:14;98269.03;;;24.16;39.57
40315;BME280;26021;45.640;11.302;2023-08-07T09:22:41;98310.63;;;24.78;42.46
40315;BME280;26021;45.640;11.302;2023-08-07T09:25:06;98276.38;;;24.85;43.65
40315;BME280;26021;45.640;11.302;2023-08-07T09:27:32;98306.25;;;24.77;40.15
40315;BME280;26021;45.640;11.302;2023-08-07T09:29:58;98302.97;;;24.75;37.16
40315;BME280;26021;45.640;11.302;2023-08-07T09:32:24;98256.72;;;24.19;36.69
40315;BME280;26021;45.640;11.302;2023-08-07T09:34:50;98307.75;;;24.44;36.61
40315;BME280;26021;45.640;11.302;2023-08-07T09:37:17;98301.69;;;24.52;38.48
40315;BME280;26021;45.640;11.302;2023-08-07T09:39:42;98309.91;;;24.57;40.34
40315;BME280;26021;45.640;11.302;2023-08-07T09:42:14;98309.38;;;24.45;39.71
40315;BME280;26021;45.640;11.302;2023-08-07T09:44:40;98307.44;;;24.60;40.07
40315;BME280;26021;45.640;11.302;2023-08-07T09:47:14;98308.97;;;24.77;41.49
40315;BME280;26021;45.640;11.302;2023-08-07T09:49:40;98289.41;;;24.54;40.28
40315;BME280;26021;45.640;11.302;2023-08-07T09:52:07;98314.88;;;24.34;40.00
40315;BME280;26021;45.640;11.302;2023-08-07T09:54:33;98319.59;;;24.08;41.08
40315;BME280;26021;45.640;11.302;2023-08-07T09:57:00;98307.50;;;24.35;40.59
40315;BME280;26021;45.640;11.302;2023-08-07T09:59:27;98310.75;;;24.42;40.50
40315;BME280;26021;45.640;11.302;2023-08-07T10:01:53;98274.69;;;24.40;41.06
40315;BME280;26021;45.640;11.302;2023-08-07T10:04:23;98315.06;;;24.63;42.11
40315;BME280;26021;45.640;11.302;2023-08-07T10:06:48;98312.72;;;24.91;41.69
40315;BME280;26021;45.640;11.302;2023-08-07T10:09:14;98298.78;;;24.87;39.35
40315;BME280;26021;45.640;11.302;2023-08-07T10:11:41;98312.03;;;24.70;39.45
40315;BME280;26021;45.640;11.302;2023-08-07T10:14:08;98290.75;;;24.57;40.01
40315;BME280;26021;45.640;11.302;2023-08-07T10:16:33;98314.19;;;24.73;40.89
40315;BME280;26021;45.640;11.302;2023-08-07T10:19:05;98314.72;;;24.75;39.00
40315;BME280;26021;45.640;11.302;2023-08-07T10:21:30;98314.19;;;24.73;39.12
40315;BME280;26021;45.640;11.302;2023-08-07T10:23:56;98316.13;;;24.73;40.67
40315;BME280;26021;45.640;11.302;2023-08-07T10:26:23;98299.53;;;24.54;41.65
40315;BME280;26021;45.640;11.302;2023-08-07T10:28:51;98301.69;;;24.62;40.20
40315;BME280;26021;45.640;11.302;2023-08-07T10:31:20;98243.09;;;24.08;39.75
40315;BME280;26021;45.640;11.302;2023-08-07T10:33:47;98313.59;;;24.81;39.31
40315;BME280;26021;45.640;11.302;2023-08-07T10:36:15;98317.38;;;24.90;39.11
40315;BME280;26021;45.640;11.302;2023-08-07T10:38:42;98308.53;;;25.09;38.89
40315;BME280;26021;45.640;11.302;2023-08-07T10:41:09;98305.50;;;25.10;38.22
40315;BME280;26021;45.640;11.302;2023-08-07T10:43:42;98304.03;;;25.28;36.40
40315;BME280;26021;45.640;11.302;2023-08-07T10:46:15;98309.44;;;25.38;36.72
40315;BME280;26021;45.640;11.302;2023-08-07T10:48:44;98307.78;;;24.98;38.36
40315;BME280;26021;45.640;11.302;2023-08-07T10:51:16;98308.78;;;24.63;36.72
40315;BME280;26021;45.640;11.302;2023-08-07T10:53:49;98299.56;;;24.38;37.49
40315;BME280;26021;45.640;11.302;2023-08-07T10:56:30;98275.31;;;24.12;40.04
40315;BME280;26021;45.640;11.302;2023-08-07T10:58:56;98323.66;;;24.16;39.46
40315;BME280;26021;45.640;11.302;2023-08-07T11:03:54;98310.09;;;23.60;38.95
40315;BME280;26021;45.640;11.302;2023-08-07T11:06:30;98319.63;;;23.48;39.94
40315;BME280;26021;45.640;11.302;2023-08-07T11:08:59;98299.41;;;23.28;40.95
40315;BME280;26021;45.640;11.302;2023-08-07T11:11:27;98263.13;;;23.07;40.70
40315;BME280;26021;45.640;11.302;2023-08-07T11:13:52;98312.25;;;23.43;40.76
40315;BME280;26021;45.640;11.302;2023-08-07T11:16:18;98310.59;;;23.37;40.63
40315;BME280;26021;45.640;11.302;2023-08-07T11:18:47;98312.53;;;23.41;41.48
40315;BME280;26021;45.640;11.302;2023-08-07T11:21:12;98316.34;;;23.35;45.17
40315;BME280;26021;45.640;11.302;2023-08-07T11:23:39;98320.97;;;23.45;47.12
40315;BME280;26021;45.640;11.302;2023-08-07T11:26:04;98299.97;;;23.20;48.78
40315;BME280;26021;45.640;11.302;2023-08-07T11:28:31;98310.06;;;23.14;52.34
40315;BME280;26021;45.640;11.302;2023-08-07T11:30:56;98316.53;;;22.88;55.61
40315;BME280;26021;45.640;11.302;2023-08-07T11:33:27;98282.31;;;22.50;57.35
40315;BME280;26021;45.640;11.302;2023-08-07T11:35:53;98312.06;;;22.62;57.88
40315;BME280;26021;45.640;11.302;2023-08-07T11:38:42;98289.94;;;22.43;57.44
40315;BME280;26021;45.640;11.302;2023-08-07T11:41:13;98323.22;;;22.60;59.07
40315;BME280;26021;45.640;11.302;2023-08-07T11:43:39;98324.84;;;22.51;60.40
40315;BME280;26021;45.640;11.302;2023-08-07T11:46:14;98270.75;;;22.23;59.45
40315;BME280;26021;45.640;11.302;2023-08-07T11:48:42;98251.22;;;21.88;56.57
40315;BME280;26021;45.640;11.302;2023-08-07T11:51:08;98288.94;;;22.07;52.24
40315;BME280;26021;45.640;11.302;2023-08-07T11:53:35;98324.94;;;22.19;49.41
40315;BME280;26021;45.640;11.302;2023-08-07T11:56:03;98323.78;;;22.05;49.23
40315;BME280;26021;45.640;11.302;2023-08-07T11:58:39;98342.06;;;22.14;51.49
40315;BME280;26021;45.640;11.302;2023-08-07T12:01:06;98322.25;;;22.29;51.93
40315;BME280;26021;45.640;11.302;2023-08-07T12:03:34;98340.91;;;22.47;52.12
40315;BME280;26021;45.640;11.302;2023-08-07T12:06:03;98348.88;;;22.69;46.90
40315;BME280;26021;45.640;11.302;2023-08-07T12:08:37;98346.19;;;22.79;47.03
40315;BME280;26021;45.640;11.302;2023-08-07T12:11:10;98277.78;;;22.13;46.01
40315;BME280;26021;45.640;11.302;2023-08-07T12:13:41;98334.97;;;22.66;46.74
40315;BME280;26021;45.640;11.302;2023-08-07T12:16:07;98281.25;;;22.56;47.09
40315;BME280;26021;45.640;11.302;2023-08-07T12:18:43;98326.69;;;23.23;44.70
40315;BME280;26021;45.640;11.302;2023-08-07T12:21:09;98340.38;;;23.64;44.10
40315;BME280;26021;45.640;11.302;2023-08-07T12:23:36;98306.50;;;23.34;43.26
40315;BME280;26021;45.640;11.302;2023-08-07T12:26:03;98346.41;;;23.81;43.62
40315;BME280;26021;45.640;11.302;2023-08-07T12:28:28;98221.91;;;22.99;42.57
40315;BME280;26021;45.640;11.302;2023-08-07T12:30:54;98327.78;;;24.03;42.42
40315;BME280;26021;45.640;11.302;2023-08-07T12:33:19;98297.47;;;24.05;40.70
40315;BME280;26021;45.640;11.302;2023-08-07T12:35:45;98330.16;;;24.46;40.94
40315;BME280;26021;45.640;11.302;2023-08-07T12:38:11;98332.94;;;24.25;38.53
40315;BME280;26021;45.640;11.302;2023-08-07T12:40:39;98257.59;;;23.99;40.00
40315;BME280;26021;45.640;11.302;2023-08-07T12:43:05;98278.94;;;23.92;40.17
40315;BME280;26021;45.640;11.302;2023-08-07T12:45:31;98323.47;;;23.87;41.52
40315;BME280;26021;45.640;11.302;2023-08-07T12:47:56;98290.41;;;23.48;43.34
40315;BME280;26021;45.640;11.302;2023-08-07T12:50:22;98316.09;;;23.83;43.66
40315;BME280;26021;45.640;11.302;2023-08-07T12:52:47;98326.19;;;23.62;45.66
40315;BME280;26021;45.640;11.302;2023-08-07T12:55:13;98319.91;;;23.82;43.30